Time;durP1;ratioP1;P1;durP2;ratioP2;P2;SDS_P1;SDS_P2;PMS_P1;PMS_P2;Temp;Humidity;BMP_temperature;BMP_pressure;BME280_temperature;BME280_humidity;BME280_pressure;Samples;Min_cycle;Max_cycle;Signal;HPM_P1;HPM_P2
2023/02/14 00:02:21;;;;;;;11.68;6.12;;;5.30;68.00;;;;;;2525100;54;20931;-82
2023/02/14 00:04:48;;;;;;;11.15;6.22;;;5.30;68.00;;;;;;2523944;54;20957;-83
2023/02/14 00:07:14;;;;;;;9.98;5.75;;;5.30;68.70;;;;;;2525085;54;20989;-82
2023/02/14 00:09:41;;;;;;;10.80;5.87;;;5.30;68.00;;;;;;2524194;54;20989;-83
2023/02/14 00:12:07;;;;;;;10.95;5.80;;;5.20;68.00;;;;;;2524902;54;20885;-83
2023/02/14 00:17:18;;;;;;;12.00;6.82;;;5.20;68.00;;;;;;2525749;54;20926;-83
2023/02/14 00:19:44;;;;;;;11.60;6.10;;;5.20;68.10;;;;;;2291901;54;20950;-83
2023/02/14 00:22:11;;;;;;;19.12;6.75;;;5.20;68.00;;;;;;2525641;54;20914;-82
2023/02/14 00:24:37;;;;;;;12.88;7.05;;;5.10;67.90;;;;;;2525689;54;20962;-82
2023/02/14 00:27:03;;;;;;;11.75;6.07;;;5.10;67.90;;;;;;2292732;54;20942;-83
2023/02/14 00:29:30;;;;;;;12.50;7.12;;;5.10;67.80;;;;;;2526668;54;20926;-83
2023/02/14 00:31:56;;;;;;;11.77;6.75;;;5.10;67.90;;;;;;2527745;54;20985;-83
2023/02/14 00:34:23;;;;;;;15.20;6.80;;;5.00;67.80;;;;;;2525522;54;20939;-83
2023/02/14 00:36:49;;;;;;;18.87;7.53;;;5.00;67.90;;;;;;2525628;54;20906;-82
2023/02/14 00:39:16;;;;;;;11.77;6.60;;;5.00;68.00;;;;;;2525057;54;20957;-83
2023/02/14 00:41:42;;;;;;;13.52;6.78;;;5.00;68.10;;;;;;2524592;54;21422;-83
2023/02/14 00:44:12;;;;;;;9.70;5.37;;;4.90;68.00;;;;;;2291352;54;20977;-82
2023/02/14 00:46:38;;;;;;;10.88;6.15;;;4.90;68.00;;;;;;2291654;54;20942;-82
2023/02/14 00:49:04;;;;;;;10.52;6.10;;;4.90;68.00;;;;;;2291291;54;21420;-83
2023/02/14 00:51:31;;;;;;;9.55;5.07;;;4.90;68.00;;;;;;2291521;54;20978;-83
2023/02/14 00:53:57;;;;;;;11.20;5.15;;;4.90;68.00;;;;;;2290558;54;20993;-82
2023/02/14 00:56:23;;;;;;;11.90;4.85;;;4.90;68.00;;;;;;2524192;54;20989;-82
2023/02/14 00:58:50;;;;;;;9.80;5.37;;;4.90;68.00;;;;;;2523769;54;20989;-83
2023/02/14 01:01:16;;;;;;;10.30;5.47;;;4.80;67.70;;;;;;2291208;54;20897;-83
2023/02/14 01:03:42;;;;;;;10.07;5.80;;;4.80;67.70;;;;;;2523842;54;20969;-82
2023/02/14 01:06:11;;;;;;;8.93;5.07;;;4.80;67.70;;;;;;2524467;54;20970;-82
2023/02/14 01:08:37;;;;;;;13.98;6.75;;;4.80;67.80;;;;;;2532836;54;21000;-82
2023/02/14 01:11:12;;;;;;;9.65;5.40;;;4.70;67.80;;;;;;2538588;54;21031;-82
2023/02/14 01:13:38;;;;;;;8.85;5.07;;;4.70;67.80;;;;;;2524273;54;20981;-83
2023/02/14 01:16:06;;;;;;;9.70;5.28;;;4.70;67.90;;;;;;2524626;54;20998;-83
2023/02/14 01:18:33;;;;;;;10.43;5.87;;;4.70;68.00;;;;;;2524521;54;21279;-83
2023/02/14 01:21:18;;;;;;;12.05;6.68;;;4.70;67.90;;;;;;2524296;54;20970;-83
2023/02/14 01:23:45;;;;;;;15.27;7.12;;;4.70;67.90;;;;;;2524448;54;21855;-83
2023/02/14 01:26:11;;;;;;;16.15;7.12;;;4.60;67.80;;;;;;2524362;54;20950;-83
2023/02/14 01:28:38;;;;;;;12.45;7.00;;;4.60;67.90;;;;;;2523858;54;20954;-82
2023/02/14 01:31:09;;;;;;;10.82;5.55;;;4.60;68.00;;;;;;2524020;54;20921;-83
2023/02/14 01:33:35;;;;;;;10.82;5.55;;;4.60;68.00;;;;;;2522459;54;21061;-83
2023/02/14 01:36:02;;;;;;;12.88;6.07;;;4.60;67.80;;;;;;2522620;54;20989;-82
2023/02/14 01:38:28;;;;;;;9.38;4.95;;;4.60;67.90;;;;;;2519173;54;20922;-82
2023/02/14 01:40:54;;;;;;;10.07;5.62;;;4.50;67.80;;;;;;2522042;54;20953;-82
2023/02/14 01:43:20;;;;;;;10.70;6.05;;;4.60;68.00;;;;;;2523058;54;20950;-82
2023/02/14 01:45:47;;;;;;;13.40;5.43;;;4.50;68.00;;;;;;2522657;54;20906;-82
2023/02/14 01:48:14;;;;;;;11.12;5.87;;;4.50;68.00;;;;;;2522601;54;20886;-83
2023/02/14 01:50:42;;;;;;;12.43;5.10;;;4.50;67.90;;;;;;2523224;54;22054;-82
2023/02/14 01:53:10;;;;;;;13.73;5.80;;;4.50;67.80;;;;;;2522995;54;21506;-82
2023/02/14 01:55:40;;;;;;;10.63;5.37;;;4.50;67.80;;;;;;2523589;54;20977;-83
2023/02/14 01:58:11;;;;;;;11.25;5.93;;;4.40;67.80;;;;;;2522783;54;20925;-82
2023/02/14 02:00:58;;;;;;;15.13;5.68;;;4.40;67.70;;;;;;2523757;54;20933;-82
2023/02/14 02:03:48;;;;;;;14.80;5.50;;;4.40;67.60;;;;;;2523654;54;21001;-83
2023/02/14 02:06:17;;;;;;;11.20;5.18;;;4.40;67.60;;;;;;2523618;54;20958;-82
2023/02/14 02:09:33;;;;;;;10.80;4.90;;;4.30;67.60;;;;;;2290901;54;21849;-83
2023/02/14 02:12:00;;;;;;;10.27;4.82;;;4.30;67.50;;;;;;2523912;54;20997;-83
2023/02/14 02:14:26;;;;;;;11.43;4.62;;;4.30;67.60;;;;;;2523639;54;20926;-82
2023/02/14 02:17:19;;;;;;;8.35;4.40;;;4.20;67.40;;;;;;2523276;54;21470;-84
2023/02/14 02:24:47;;;;;;;9.95;4.53;;;4.20;67.40;;;;;;2523648;54;20929;-82
2023/02/14 02:31:32;;;;;;;9.90;4.00;;;4.20;67.20;;;;;;2524086;54;21021;-83
2023/02/14 02:35:45;;;;;;;8.63;3.58;;;4.10;67.40;;;;;;2524454;54;20991;-82
2023/02/14 02:39:53;;;;;;;6.80;3.50;;;4.20;67.70;;;;;;2523526;54;20993;-83
2023/02/14 02:43:52;;;;;;;10.45;5.05;;;4.10;67.60;;;;;;2291595;54;20950;-83
2023/02/14 02:48:16;;;;;;;6.55;3.67;;;4.10;67.80;;;;;;2290472;54;20980;-83
2023/02/14 02:53:57;;;;;;;14.30;4.97;;;4.10;67.80;;;;;;2522941;54;20040;-83
2023/02/14 02:56:45;;;;;;;12.98;5.95;;;4.10;68.30;;;;;;2522100;55;21489;-82
2023/02/14 02:59:32;;;;;;;15.95;5.93;;;4.10;68.50;;;;;;2523030;54;21638;-82
2023/02/14 03:05:25;;;;;;;8.10;4.18;;;4.10;68.50;;;;;;2522608;54;21861;-83
2023/02/14 03:07:54;;;;;;;7.70;4.20;;;4.10;69.30;;;;;;2521869;54;20958;-83
2023/02/14 03:10:22;;;;;;;7.55;3.90;;;4.10;68.40;;;;;;2522315;54;20906;-82
2023/02/14 03:16:05;;;;;;;7.55;4.50;;;4.10;68.50;;;;;;2522547;54;21775;-82
2023/02/14 03:25:10;;;;;;;8.85;3.50;;;4.10;67.90;;;;;;2521393;54;21799;-82
2023/02/14 03:27:40;;;;;;;7.70;3.17;;;4.20;68.00;;;;;;2521428;54;20962;-82
2023/02/14 03:30:39;;;;;;;7.03;3.85;;;4.20;68.40;;;;;;2288807;54;20941;-83
2023/02/14 03:34:37;;;;;;;11.48;4.50;;;4.10;68.20;;;;;;2521831;54;21481;-83
2023/02/14 03:37:12;;;;;;;7.10;4.03;;;4.20;68.40;;;;;;2522150;54;20981;-83
2023/02/14 03:39:59;;;;;;;7.60;4.10;;;4.10;68.20;;;;;;2522542;54;20948;-82
2023/02/14 03:42:31;;;;;;;7.30;4.12;;;4.10;68.20;;;;;;2523729;54;20970;-82
2023/02/14 03:44:57;;;;;;;7.90;4.40;;;4.10;68.20;;;;;;2523557;54;21833;-83
2023/02/14 03:47:26;;;;;;;7.18;3.83;;;4.10;68.20;;;;;;2290880;54;21720;-83
2023/02/14 03:49:54;;;;;;;7.37;3.92;;;4.10;68.30;;;;;;2523732;54;21014;-83
2023/02/14 03:52:21;;;;;;;10.63;4.37;;;4.00;68.20;;;;;;2523755;54;20974;-82
2023/02/14 03:54:48;;;;;;;8.63;4.93;;;4.10;68.50;;;;;;2523494;54;21105;-83
2023/02/14 03:57:21;;;;;;;22.52;5.70;;;4.10;68.50;;;;;;2523891;54;20925;-83
2023/02/14 03:59:48;;;;;;;8.32;4.47;;;4.10;68.60;;;;;;2524150;54;20906;-83
2023/02/14 04:02:18;;;;;;;11.68;5.18;;;4.10;68.60;;;;;;2524051;54;20978;-83
2023/02/14 04:04:46;;;;;;;7.78;4.62;;;4.10;68.70;;;;;;2524383;54;20921;-83
2023/02/14 04:07:17;;;;;;;7.78;3.85;;;4.20;68.80;;;;;;2291886;54;20929;-83
2023/02/14 04:09:44;;;;;;;10.57;4.62;;;4.10;68.60;;;;;;2524278;54;20922;-82
2023/02/14 04:12:10;;;;;;;7.82;4.30;;;4.10;68.50;;;;;;2524025;54;21000;-84
2023/02/14 04:14:36;;;;;;;7.40;4.45;;;4.10;68.50;;;;;;2523376;54;20947;-82
2023/02/14 04:19:48;;;;;;;6.87;3.95;;;4.10;68.50;;;;;;2523496;54;20942;-83
2023/02/14 04:22:14;;;;;;;8.73;4.15;;;4.10;68.40;;;;;;2523169;54;20945;-82
2023/02/14 04:24:40;;;;;;;9.43;4.40;;;4.10;68.20;;;;;;2518764;54;21052;-83
2023/02/14 04:27:12;;;;;;;9.38;4.70;;;4.10;68.10;;;;;;2509993;54;20929;-83
2023/02/14 04:29:43;;;;;;;10.03;4.30;;;4.10;68.20;;;;;;2509865;54;20929;-82
2023/02/14 04:32:11;;;;;;;6.57;3.87;;;4.10;68.20;;;;;;2509886;54;22164;-83
2023/02/14 04:34:38;;;;;;;13.82;3.83;;;4.10;68.30;;;;;;2278430;54;21041;-83
2023/02/14 04:37:04;;;;;;;8.48;4.00;;;4.10;68.20;;;;;;2510004;54;20967;-82
2023/02/14 04:39:30;;;;;;;5.18;3.20;;;4.10;68.10;;;;;;2509785;54;20989;-82
2023/02/14 04:41:57;;;;;;;8.82;4.37;;;4.00;68.00;;;;;;2509938;54;20993;-83
2023/02/14 04:44:23;;;;;;;17.25;4.85;;;4.00;68.00;;;;;;2510311;54;20921;-82
2023/02/14 04:46:50;;;;;;;7.53;4.72;;;4.00;68.10;;;;;;2510070;54;21085;-83
2023/02/14 04:49:16;;;;;;;8.80;4.95;;;4.10;68.10;;;;;;2509992;54;21688;-83
2023/02/14 04:51:43;;;;;;;6.82;3.40;;;4.00;68.00;;;;;;2509702;53;22015;-83
2023/02/14 04:54:10;;;;;;;6.05;3.37;;;4.00;68.10;;;;;;2504493;54;22076;-82
2023/02/14 04:56:36;;;;;;;10.30;3.95;;;4.00;68.00;;;;;;2274316;54;20977;-82
2023/02/14 04:59:03;;;;;;;8.68;4.85;;;4.00;67.90;;;;;;2505729;54;21002;-83
2023/02/14 05:01:29;;;;;;;8.27;4.70;;;4.00;67.90;;;;;;2282708;54;21003;-83
2023/02/14 05:03:56;;;;;;;12.27;4.93;;;3.90;67.80;;;;;;2518148;54;20942;-82
2023/02/14 05:06:23;;;;;;;9.35;4.93;;;3.80;67.70;;;;;;2504602;54;20918;-83
2023/02/14 05:08:50;;;;;;;8.55;4.85;;;3.90;68.00;;;;;;2505103;54;20958;-81
2023/02/14 05:11:16;;;;;;;7.72;4.25;;;4.00;68.00;;;;;;2505155;54;22474;-83
2023/02/14 05:13:43;;;;;;;7.10;4.07;;;4.10;68.10;;;;;;2504831;54;21045;-83
2023/02/14 05:16:09;;;;;;;7.87;4.10;;;4.00;68.10;;;;;;2504680;54;22054;-83
2023/02/14 05:18:36;;;;;;;6.53;3.80;;;4.00;68.20;;;;;;2504851;54;21774;-82
2023/02/14 05:21:03;;;;;;;7.28;3.72;;;4.00;68.20;;;;;;2505404;54;20962;-83
2023/02/14 05:23:29;;;;;;;6.25;3.58;;;4.00;68.00;;;;;;2275039;54;20914;-82
2023/02/14 05:25:56;;;;;;;6.82;3.85;;;4.00;68.10;;;;;;2505486;54;20926;-83
2023/02/14 05:28:23;;;;;;;7.75;4.57;;;4.00;68.00;;;;;;2504668;54;21010;-82
2023/02/14 05:30:50;;;;;;;6.70;3.70;;;4.00;68.00;;;;;;2274870;54;20965;-83
2023/02/14 05:33:16;;;;;;;9.82;4.15;;;4.00;68.10;;;;;;2505291;54;20922;-83
2023/02/14 05:35:42;;;;;;;9.68;4.65;;;4.10;68.10;;;;;;2505187;54;20965;-84
2023/02/14 05:38:09;;;;;;;6.68;3.85;;;4.00;67.90;;;;;;2505666;54;21017;-82
2023/02/14 05:40:35;;;;;;;13.02;4.05;;;4.00;67.90;;;;;;2505031;54;21908;-83
2023/02/14 05:43:03;;;;;;;8.63;4.90;;;4.00;67.80;;;;;;2505032;54;21998;-82
2023/02/14 05:45:29;;;;;;;6.72;3.97;;;4.00;67.90;;;;;;2505406;54;20934;-83
2023/02/14 05:47:56;;;;;;;7.78;3.92;;;4.00;67.90;;;;;;2506405;54;20955;-82
2023/02/14 05:50:23;;;;;;;7.70;4.03;;;4.00;67.80;;;;;;2505865;54;20986;-83
2023/02/14 05:52:49;;;;;;;8.00;4.60;;;4.00;67.70;;;;;;2507337;54;21018;-83
2023/02/14 05:55:16;;;;;;;10.65;4.30;;;4.00;67.90;;;;;;2504550;54;22152;-84
2023/02/14 05:57:42;;;;;;;7.30;3.72;;;4.00;67.80;;;;;;2506103;54;20970;-84
2023/02/14 06:00:10;;;;;;;11.25;3.47;;;4.10;67.90;;;;;;2505900;54;20909;-83
2023/02/14 06:02:36;;;;;;;5.60;3.33;;;3.90;67.80;;;;;;2505488;54;20922;-83
2023/02/14 06:05:06;;;;;;;6.28;3.67;;;4.00;67.70;;;;;;2505306;54;21024;-82
2023/02/14 06:07:33;;;;;;;27.00;5.12;;;3.90;67.80;;;;;;2274893;54;20938;-82
2023/02/14 06:09:59;;;;;;;8.73;4.90;;;3.90;67.60;;;;;;2504950;54;22102;-83
2023/02/14 06:12:26;;;;;;;7.53;4.40;;;3.90;67.70;;;;;;2505480;54;21082;-84
2023/02/14 06:14:52;;;;;;;6.43;3.45;;;3.90;67.80;;;;;;2505999;54;22016;-84
2023/02/14 06:17:19;;;;;;;6.53;3.53;;;3.90;67.90;;;;;;2505147;54;21045;-83
2023/02/14 06:19:45;;;;;;;10.32;3.70;;;4.00;67.80;;;;;;2506003;54;21419;-83
2023/02/14 06:22:12;;;;;;;5.60;3.05;;;3.90;67.90;;;;;;2505839;54;20922;-83
2023/02/14 06:24:39;;;;;;;7.50;4.00;;;3.90;67.90;;;;;;2505170;54;21605;-84
2023/02/14 06:27:05;;;;;;;7.47;4.40;;;3.90;67.90;;;;;;2506383;54;20930;-83
2023/02/14 06:29:31;;;;;;;7.65;4.32;;;3.90;67.90;;;;;;2507396;54;20975;-83
2023/02/14 06:32:04;;;;;;;9.73;5.47;;;3.90;68.20;;;;;;2505638;54;20922;-83
2023/02/14 06:34:30;;;;;;;;;;;3.90;68.30;;;;;;2509699;54;22110;-83
2023/02/14 06:36:57;;;;;;;6.93;3.90;;;4.00;67.80;;;;;;2275953;54;21039;-83
2023/02/14 06:39:23;;;;;;;8.73;5.03;;;3.90;68.20;;;;;;2506202;54;20933;-83
2023/02/14 06:41:50;;;;;;;7.28;4.07;;;4.00;68.10;;;;;;2276176;54;21021;-84
2023/02/14 06:44:16;;;;;;;10.90;5.05;;;4.00;68.30;;;;;;2505960;54;20929;-82
2023/02/14 06:46:43;;;;;;;13.30;5.80;;;4.00;68.30;;;;;;2506375;54;21038;-83
2023/02/14 06:49:09;;;;;;;13.02;5.68;;;4.00;68.40;;;;;;2506791;54;20946;-83
2023/02/14 06:51:36;;;;;;;15.25;6.45;;;4.00;68.30;;;;;;2510035;54;20977;-82
2023/02/14 06:54:02;;;;;;;12.48;5.80;;;4.00;68.20;;;;;;2508875;54;21950;-83
2023/02/14 06:56:29;;;;;;;10.82;5.32;;;4.00;68.10;;;;;;2510220;54;20977;-81
2023/02/14 06:58:55;;;;;;;8.32;4.60;;;4.00;68.00;;;;;;2512002;54;20957;-82
2023/02/14 07:01:21;;;;;;;15.10;5.50;;;4.00;68.00;;;;;;2509953;54;20950;-82
2023/02/14 07:03:48;;;;;;;15.30;5.80;;;4.00;68.10;;;;;;2509519;54;20974;-82
2023/02/14 07:06:14;;;;;;;11.30;5.87;;;4.00;68.10;;;;;;2509745;54;21029;-82
2023/02/14 07:08:41;;;;;;;16.95;5.72;;;4.00;68.10;;;;;;2510746;54;20897;-83
2023/02/14 07:11:07;;;;;;;9.75;4.70;;;4.00;68.10;;;;;;2511661;54;21014;-83
2023/02/14 07:13:33;;;;;;;7.68;4.40;;;4.00;67.90;;;;;;2510154;54;21975;-82
2023/02/14 07:16:00;;;;;;;7.82;4.10;;;4.00;68.00;;;;;;2509312;54;21486;-83
2023/02/14 07:18:27;;;;;;;10.63;4.90;;;4.00;68.00;;;;;;2278525;54;20890;-83
2023/02/14 07:20:53;;;;;;;8.73;4.95;;;4.00;68.00;;;;;;2511009;54;20913;-82
2023/02/14 07:23:20;;;;;;;8.20;4.40;;;3.90;68.00;;;;;;2510616;54;22014;-82
2023/02/14 07:25:47;;;;;;;6.97;4.05;;;3.90;68.00;;;;;;2511347;54;20917;-82
2023/02/14 07:28:13;;;;;;;7.87;4.72;;;4.00;68.10;;;;;;2511809;54;20945;-83
2023/02/14 07:30:40;;;;;;;8.50;4.65;;;3.90;68.00;;;;;;2511559;54;20930;-84
2023/02/14 07:33:06;;;;;;;8.68;4.93;;;4.00;68.20;;;;;;2511682;54;20977;-82
2023/02/14 07:35:34;;;;;;;13.05;5.43;;;3.80;68.00;;;;;;2511749;54;20979;-83
2023/02/14 07:38:00;;;;;;;9.45;5.15;;;4.00;68.40;;;;;;2278629;54;20878;-83
2023/02/14 07:40:28;;;;;;;10.05;5.53;;;4.00;68.40;;;;;;2278836;54;22161;-82
2023/02/14 07:42:55;;;;;;;11.65;4.75;;;4.00;68.50;;;;;;2505184;54;20955;-82
2023/02/14 07:45:22;;;;;;;7.72;4.35;;;4.00;68.60;;;;;;2501486;54;20953;-82
2023/02/14 07:47:49;;;;;;;9.05;4.70;;;4.00;68.60;;;;;;2510437;54;21316;-83
2023/02/14 07:50:16;;;;;;;9.15;4.90;;;4.10;68.60;;;;;;2510357;54;21533;-83
2023/02/14 07:52:42;;;;;;;16.50;5.35;;;4.10;68.40;;;;;;2509974;54;20930;-82
2023/02/14 07:55:09;;;;;;;13.40;5.57;;;4.10;68.50;;;;;;2510889;54;20936;-83
2023/02/14 07:57:35;;;;;;;14.55;5.95;;;4.10;68.30;;;;;;2511074;54;20969;-83
2023/02/14 08:00:03;;;;;;;24.12;5.57;;;4.10;68.20;;;;;;2512062;54;20926;-83
2023/02/14 08:02:30;;;;;;;21.02;5.80;;;4.10;68.20;;;;;;2511980;54;20930;-84
2023/02/14 08:04:56;;;;;;;17.23;6.22;;;4.10;68.20;;;;;;2512467;54;20970;-84
2023/02/14 08:07:23;;;;;;;9.70;4.90;;;4.10;68.00;;;;;;2512974;54;21001;-83
2023/02/14 08:09:50;;;;;;;16.30;5.85;;;4.10;67.90;;;;;;2512160;54;21017;-83
2023/02/14 08:17:46;;;;;;;12.48;5.68;;;4.20;68.10;;;;;;2513210;54;20922;-83
2023/02/14 08:20:15;;;;;;;12.10;5.65;;;4.10;68.10;;;;;;2513808;54;21901;-84
2023/02/14 08:22:42;;;;;;;13.65;6.00;;;3.90;67.90;;;;;;2514849;54;21554;-84
2023/02/14 08:25:11;;;;;;;11.45;5.03;;;4.10;68.00;;;;;;2513213;54;20962;-85
2023/02/14 08:27:38;;;;;;;13.98;5.87;;;4.10;68.10;;;;;;2514035;54;21303;-83
2023/02/14 08:30:05;;;;;;;15.90;6.43;;;4.10;68.10;;;;;;2514905;54;20941;-83
2023/02/14 08:32:32;;;;;;;8.50;4.68;;;4.10;68.10;;;;;;2512969;54;21514;-83
2023/02/14 08:34:59;;;;;;;8.88;4.60;;;4.10;68.10;;;;;;2511381;54;21001;-82
2023/02/14 08:37:25;;;;;;;10.32;5.47;;;4.10;68.20;;;;;;2512695;54;22007;-83
2023/02/14 08:39:51;;;;;;;8.02;4.15;;;4.10;68.30;;;;;;2513232;54;21988;-83
2023/02/14 08:42:18;;;;;;;8.55;4.95;;;4.10;68.40;;;;;;2513300;54;20918;-82
2023/02/14 08:44:44;;;;;;;6.55;4.05;;;3.90;68.30;;;;;;2513574;54;20922;-83
2023/02/14 08:47:10;;;;;;;9.00;4.20;;;4.10;68.50;;;;;;2514780;54;20926;-82
2023/02/14 08:49:37;;;;;;;9.70;4.47;;;4.20;68.70;;;;;;2514391;54;21544;-83
2023/02/14 08:52:04;;;;;;;10.55;5.12;;;4.20;68.70;;;;;;2514803;54;21249;-83
2023/02/14 08:54:30;;;;;;;6.90;4.18;;;4.20;68.70;;;;;;2514818;54;20954;-83
2023/02/14 08:56:56;;;;;;;11.43;4.70;;;4.20;68.70;;;;;;2514818;54;20953;-82
2023/02/14 08:59:23;;;;;;;7.15;4.30;;;4.30;68.80;;;;;;2513157;54;20898;-82
2023/02/14 09:01:52;;;;;;;12.93;5.68;;;4.30;68.60;;;;;;2512340;54;20906;-82
2023/02/14 09:04:19;;;;;;;7.95;4.60;;;4.30;68.70;;;;;;2513613;54;20980;-83
2023/02/14 09:06:45;;;;;;;11.73;4.53;;;4.30;68.70;;;;;;2513751;54;20974;-83
2023/02/14 09:09:12;;;;;;;9.77;4.00;;;4.40;68.80;;;;;;2513950;54;21049;-83
2023/02/14 09:11:38;;;;;;;12.90;5.22;;;4.40;68.60;;;;;;2285714;54;20966;-83
2023/02/14 09:14:05;;;;;;;10.80;4.82;;;4.40;68.50;;;;;;2513789;54;20985;-84
2023/02/14 09:16:31;;;;;;;10.35;4.62;;;4.20;68.20;;;;;;2512060;54;20910;-83
2023/02/14 09:18:57;;;;;;;8.82;4.70;;;4.40;68.20;;;;;;2512801;54;20909;-82
2023/02/14 09:21:25;;;;;;;9.05;4.80;;;4.40;68.10;;;;;;2512351;54;21045;-83
2023/02/14 09:23:51;;;;;;;12.37;4.68;;;4.40;68.10;;;;;;2511628;54;21029;-84
2023/02/14 09:26:18;;;;;;;14.23;5.07;;;4.40;68.00;;;;;;2512473;54;21307;-83
2023/02/14 09:28:44;;;;;;;7.37;4.10;;;4.40;68.10;;;;;;2281397;54;22016;-82
2023/02/14 09:31:15;;;;;;;13.55;4.95;;;4.40;68.10;;;;;;2511435;54;21069;-83
2023/02/14 09:33:42;;;;;;;9.43;4.60;;;4.40;68.20;;;;;;2279891;54;20921;-83
2023/02/14 09:38:53;;;;;;;14.70;4.97;;;4.40;68.30;;;;;;2510898;54;20969;-83
2023/02/14 09:41:50;;;;;;;10.18;5.03;;;4.40;68.40;;;;;;2511072;54;20938;-83
2023/02/14 09:45:03;;;;;;;9.65;5.05;;;4.40;68.40;;;;;;2511130;54;20993;-83
2023/02/14 09:47:36;;;;;;;9.63;5.20;;;4.50;68.50;;;;;;2511148;54;20935;-83
2023/02/14 09:50:04;;;;;;;10.98;5.55;;;4.50;68.60;;;;;;2280136;54;20918;-83
2023/02/14 09:52:31;;;;;;;13.98;6.22;;;4.50;68.80;;;;;;2510687;54;20930;-83
2023/02/14 09:55:00;;;;;;;10.13;4.40;;;4.50;68.90;;;;;;2510626;54;20942;-83
2023/02/14 09:57:43;;;;;;;9.02;5.20;;;4.70;69.30;;;;;;2280626;54;21520;-83
2023/02/14 10:00:19;;;;;;;9.88;4.90;;;4.60;69.10;;;;;;2510804;54;20945;-82
2023/02/14 10:05:29;;;;;;;12.25;5.03;;;4.70;69.10;;;;;;2511128;54;21127;-84
2023/02/14 10:10:52;;;;;;;13.38;5.12;;;4.70;69.00;;;;;;2510864;54;20973;-84
2023/02/14 10:13:25;;;;;;;10.85;4.90;;;4.70;68.60;;;;;;2510529;54;20997;-83
2023/02/14 10:16:07;;;;;;;9.43;5.10;;;4.80;68.80;;;;;;2510220;54;20910;-82
2023/02/14 10:18:51;;;;;;;12.63;5.85;;;4.80;68.80;;;;;;2281101;54;20969;-84
2023/02/14 10:21:43;;;;;;;10.40;6.20;;;4.80;69.00;;;;;;2511709;54;20954;-83
2023/02/14 10:25:48;;;;;;;11.32;5.87;;;4.80;69.10;;;;;;2511442;54;21457;-83
2023/02/14 10:28:14;;;;;;;16.43;6.50;;;4.90;68.80;;;;;;2510661;54;20933;-83
2023/02/14 10:31:04;;;;;;;13.77;6.95;;;4.90;69.10;;;;;;2279216;54;20902;-83
2023/02/14 10:33:32;;;;;;;12.10;6.40;;;4.90;69.40;;;;;;2279227;54;22030;-83
2023/02/14 10:36:11;;;;;;;13.15;7.00;;;5.00;69.50;;;;;;2510560;54;20921;-82
2023/02/14 10:44:46;;;;;;;12.13;6.22;;;5.00;69.50;;;;;;2278880;54;20971;-83
2023/02/14 10:47:45;;;;;;;21.25;8.85;;;5.20;69.30;;;;;;2510087;54;22167;-83
2023/02/14 10:50:43;;;;;;;17.73;7.97;;;5.30;70.30;;;;;;2283349;54;20915;-83
2023/02/14 10:53:38;;;;;;;16.17;7.43;;;5.30;69.60;;;;;;2509957;54;21092;-83
2023/02/14 10:56:31;;;;;;;15.95;8.27;;;5.40;69.80;;;;;;2510808;54;20943;-84
2023/02/14 10:58:57;;;;;;;15.85;8.65;;;5.40;69.60;;;;;;2510551;54;21005;-82
2023/02/14 11:01:24;;;;;;;16.90;9.50;;;5.50;69.80;;;;;;2507796;54;20958;-82
2023/02/14 11:04:10;;;;;;;14.23;8.02;;;5.50;69.80;;;;;;2508973;54;20938;-83
2023/02/14 11:06:36;;;;;;;13.85;7.70;;;5.60;69.90;;;;;;2278734;54;21463;-83
2023/02/14 11:09:03;;;;;;;14.82;7.03;;;5.60;70.10;;;;;;2509554;54;20938;-83
2023/02/14 11:11:32;;;;;;;12.25;6.60;;;5.70;70.20;;;;;;2508582;54;20930;-83
2023/02/14 11:13:58;;;;;;;18.83;9.18;;;5.70;70.20;;;;;;2509953;54;20929;-83
2023/02/14 11:16:31;;;;;;;16.48;7.97;;;5.80;70.30;;;;;;2511392;54;22249;-85
2023/02/14 11:20:05;;;;;;;16.02;7.55;;;5.90;70.10;;;;;;2513320;54;20987;-85
2023/02/14 11:22:32;;;;;;;16.20;8.30;;;5.90;69.50;;;;;;2511865;53;21029;-84
2023/02/14 11:25:18;;;;;;;14.68;7.43;;;6.00;69.80;;;;;;2514768;53;21550;-83
2023/02/14 11:27:48;;;;;;;13.75;7.05;;;6.00;69.80;;;;;;2513046;54;20894;-84
2023/02/14 11:30:26;;;;;;;13.75;7.97;;;6.10;69.80;;;;;;2513386;54;21073;-83
2023/02/14 11:32:54;;;;;;;14.82;6.85;;;6.10;69.70;;;;;;2513050;54;20985;-84
2023/02/14 11:35:33;;;;;;;14.00;8.40;;;6.10;69.80;;;;;;2512621;54;21506;-84
2023/02/14 11:38:03;;;;;;;13.45;7.57;;;6.10;69.80;;;;;;2512999;54;20997;-84
2023/02/14 11:40:36;;;;;;;15.82;8.20;;;6.20;70.60;;;;;;2513227;54;20934;-84
2023/02/14 11:44:12;;;;;;;15.38;8.40;;;6.20;69.60;;;;;;2513586;54;21369;-84
2023/02/14 11:46:39;;;;;;;15.18;7.80;;;6.30;69.30;;;;;;2513969;54;20923;-84
2023/02/14 11:49:28;;;;;;;21.33;9.93;;;6.30;69.60;;;;;;2279104;54;21005;-84
2023/02/14 11:51:56;;;;;;;18.95;9.45;;;6.40;69.60;;;;;;2511068;54;21455;-83
2023/02/14 11:54:35;;;;;;;15.20;8.30;;;6.40;69.60;;;;;;2280099;54;20942;-84
2023/02/14 11:57:22;;;;;;;20.12;9.60;;;6.40;69.50;;;;;;2511656;54;21948;-83
2023/02/14 11:59:51;;;;;;;17.80;9.75;;;6.40;69.60;;;;;;2512637;54;20927;-83
2023/02/14 12:02:51;;;;;;;20.62;10.65;;;6.40;69.60;;;;;;2512091;54;21901;-84
2023/02/14 12:05:32;;;;;;;16.08;9.15;;;6.50;69.10;;;;;;2511365;54;21453;-84
2023/02/14 12:08:01;;;;;;;14.98;8.32;;;6.50;69.40;;;;;;2511930;54;20978;-84
2023/02/14 12:10:34;;;;;;;18.90;9.05;;;6.50;69.40;;;;;;2510722;54;20945;-83
2023/02/14 12:13:03;;;;;;;19.83;9.82;;;6.50;69.40;;;;;;2511507;54;20950;-83
2023/02/14 12:15:48;;;;;;;16.48;9.13;;;6.60;69.40;;;;;;2509450;54;20954;-83
2023/02/14 12:19:24;;;;;;;16.05;8.77;;;6.60;69.20;;;;;;2510980;54;20910;-83
2023/02/14 12:21:57;;;;;;;16.58;8.90;;;6.60;69.10;;;;;;2511681;54;22170;-84
2023/02/14 12:24:56;;;;;;;15.07;8.27;;;6.60;69.10;;;;;;2512430;54;20930;-84
2023/02/14 12:27:28;;;;;;;17.08;8.77;;;6.60;68.90;;;;;;2513036;54;21974;-84
2023/02/14 12:30:55;;;;;;;18.45;9.32;;;6.60;68.90;;;;;;2513729;54;20973;-85
2023/02/14 12:33:24;;;;;;;12.27;6.62;;;6.60;68.20;;;;;;2513048;54;21510;-83
2023/02/14 12:39:07;;;;;;;16.58;8.70;;;6.60;68.60;;;;;;2511521;55;20949;-84
2023/02/14 12:43:24;;;;;;;18.30;8.55;;;6.60;68.50;;;;;;2510365;54;20942;-83
2023/02/14 12:46:12;;;;;;;17.15;8.77;;;6.60;68.50;;;;;;2279880;54;20982;-82
2023/02/14 12:49:14;;;;;;;18.87;8.45;;;6.60;68.50;;;;;;2509506;54;20966;-83
2023/02/14 12:53:47;;;;;;;18.75;8.48;;;6.70;68.50;;;;;;2509923;54;20925;-82
2023/02/14 12:58:03;;;;;;;17.50;8.30;;;6.50;68.50;;;;;;2509812;54;20929;-84
2023/02/14 13:07:37;;;;;;;16.15;8.30;;;6.50;68.60;;;;;;2509171;54;20918;-83
2023/02/14 13:10:18;;;;;;;13.80;6.70;;;6.60;68.70;;;;;;2509174;54;20998;-83
2023/02/14 13:21:24;;;;;;;23.33;8.93;;;6.60;69.40;;;;;;2510162;54;21037;-84
2023/02/14 13:23:57;;;;;;;11.35;5.53;;;6.70;69.20;;;;;;2509432;54;20939;-83
2023/02/14 13:26:29;;;;;;;15.20;7.68;;;6.70;69.60;;;;;;2509403;54;20973;-83
2023/02/14 13:29:04;;;;;;;16.08;7.65;;;6.70;69.60;;;;;;2509935;54;21244;-83
2023/02/14 13:31:30;;;;;;;16.02;8.10;;;6.70;69.70;;;;;;2278171;54;20949;-83
2023/02/14 13:34:22;;;;;;;16.75;8.15;;;6.70;69.80;;;;;;2507996;54;20930;-83
2023/02/14 13:36:49;;;;;;;15.10;7.97;;;6.80;69.80;;;;;;2509599;54;20890;-83
2023/02/14 13:40:37;;;;;;;18.37;9.88;;;6.80;69.90;;;;;;2509736;54;20922;-83
2023/02/14 13:43:03;;;;;;;14.00;7.90;;;6.80;69.30;;;;;;2510710;54;21080;-84
2023/02/14 13:45:52;;;;;;;13.07;7.00;;;6.90;69.80;;;;;;2509655;54;20890;-83
2023/02/14 13:48:24;;;;;;;17.40;8.38;;;6.90;69.50;;;;;;2510319;54;20918;-84
2023/02/14 13:51:01;;;;;;;20.73;10.00;;;6.90;69.70;;;;;;2510901;54;20976;-83
2023/02/14 13:53:33;;;;;;;18.20;10.45;;;6.90;69.50;;;;;;2511347;54;20962;-83
2023/02/14 13:56:04;;;;;;;18.52;10.02;;;6.90;69.30;;;;;;2510815;54;21949;-83
2023/02/14 13:58:30;;;;;;;16.85;9.75;;;6.90;69.20;;;;;;2510559;54;22007;-83
2023/02/14 14:00:57;;;;;;;22.58;10.82;;;6.90;69.20;;;;;;2510326;54;20966;-83
2023/02/14 14:04:54;;;;;;;19.05;10.07;;;6.90;69.20;;;;;;2279187;54;21028;-83
2023/02/14 14:07:24;;;;;;;19.05;10.23;;;6.90;68.90;;;;;;2279725;54;21538;-83
2023/02/14 14:09:55;;;;;;;18.00;9.55;;;6.90;69.50;;;;;;2511066;54;20914;-83
2023/02/14 14:12:54;;;;;;;16.45;9.35;;;6.90;69.40;;;;;;2511020;54;20918;-82
2023/02/14 14:15:20;;;;;;;16.95;9.00;;;7.00;69.30;;;;;;2510577;54;20925;-83
2023/02/14 14:18:29;;;;;;;20.35;10.70;;;7.00;69.70;;;;;;2511640;54;20986;-83
2023/02/14 14:20:55;;;;;;;15.25;8.55;;;7.00;69.70;;;;;;2511185;55;20915;-83
2023/02/14 14:23:39;;;;;;;18.80;10.07;;;7.00;69.60;;;;;;2510241;54;20936;-83
2023/02/14 14:26:35;;;;;;;19.30;10.38;;;7.00;69.30;;;;;;2510664;54;21092;-85
2023/02/14 14:29:02;;;;;;;19.65;10.20;;;7.00;69.20;;;;;;2282495;54;20996;-82
2023/02/14 14:31:28;;;;;;;22.90;11.07;;;7.00;69.50;;;;;;2509905;54;20957;-82
2023/02/14 14:33:59;;;;;;;20.52;10.75;;;7.00;69.50;;;;;;2510659;54;20974;-82
2023/02/14 14:36:25;;;;;;;21.80;11.52;;;7.00;69.40;;;;;;2510699;54;22115;-83
2023/02/14 14:38:53;;;;;;;19.58;9.80;;;7.00;69.50;;;;;;2278674;54;21905;-83
2023/02/14 14:41:25;;;;;;;18.55;9.98;;;7.00;69.50;;;;;;2510744;54;21497;-83